AGGH/HIR METAR and TAF weather

Enter ICAO airport designator
Station Type Date Time Source
AGGH METAR 2019/02/23 16:00 UTC NOAA

AGGH 231600Z 18002KT 9999 HZ FEW015 SCT300 24/23 Q1009


Station Type Date Time Source
AGGH Decoded METAR 2019/02/23 16:00 UTC NOAA

Honiara / Henderson, Solomon Islands (AGGH) 09-25S 160-03E 9M
Feb 23, 2019 - 11:00 AM EST / 2019.02.23 1600 UTC
Wind: from the S (180 degrees) at 2 MPH (2 KT):0
Visibility: greater than 7 mile(s):0
Sky conditions: partly cloudy
Weather: haze
Temperature: 75 F (24 C)
Dew Point: 73 F (23 C)
Relative Humidity: 94%
Pressure (altimeter): 29.80 in. Hg (1009 hPa)
ob: AGGH 231600Z 18002KT 9999 HZ FEW015 SCT300 24/23 Q1009
cycle: 16

Station Type Date Time Source
AGGH TAF 2019/02/23 18:52 UTC NOAA

TAF AGGH 231641Z 2318/2418 02010KT 9999 FEW018 SCT030 T 24 26 31 32 Q 1009 1011 1011 1009


Example: see airport list